Terminal Aerodrome Forecast
Issued by NWS Duluth, MN

Home | Current Version | Previous Version | Text Only | Print | Product List | Glossary On
Versions: 1 2 3 4 5 6 7 8 9 10 11 12 13 14 15 16 17 18 19 20 21 22 23 24 25 26 27 28 29 30 31 32 33 34 35 36 37 38 39 40 41
000
FTUS43 KDLH 172100 AAB
TAFDLH
TAF AMD
KDLH 172100Z 1721/1818 09013G20KT P6SM BKN008
     FM172300 09011G18KT P6SM SCT009 BKN015
     FM180400 09010KT P6SM SCT015=

USA.gov is the U.S. government's official web portal to all federal, state and local government web resources and services.